sensor_id;sensor_type;location;lat;lon;timestamp;temperature;humidity
24412;DHT22;12544;46.760;15.942;2023-11-18T00:01:46;3.90;99.90
24412;DHT22;12544;46.760;15.942;2023-11-18T00:07:34;4.00;99.90
24412;DHT22;12544;46.760;15.942;2023-11-18T00:09:59;4.10;99.90
24412;DHT22;12544;46.760;15.942;2023-11-18T00:12:25;4.10;99.90
24412;DHT22;12544;46.760;15.942;2023-11-18T00:14:50;4.10;99.90
24412;DHT22;12544;46.760;15.942;2023-11-18T00:17:16;4.10;99.90
24412;DHT22;12544;46.760;15.942;2023-11-18T00:19:42;4.10;99.90
24412;DHT22;12544;46.760;15.942;2023-11-18T00:22:11;4.00;99.90
24412;DHT22;12544;46.760;15.942;2023-11-18T00:24:37;3.80;99.90
24412;DHT22;12544;46.760;15.942;2023-11-18T00:27:04;3.70;99.90
24412;DHT22;12544;46.760;15.942;2023-11-18T00:29:34;3.50;99.90
24412;DHT22;12544;46.760;15.942;2023-11-18T00:32:00;3.50;99.90
24412;DHT22;12544;46.760;15.942;2023-11-18T00:34:26;3.50;99.90
24412;DHT22;12544;46.760;15.942;2023-11-18T00:36:53;3.50;99.90
24412;DHT22;12544;46.760;15.942;2023-11-18T00:39:19;3.50;99.90
24412;DHT22;12544;46.760;15.942;2023-11-18T00:41:46;3.50;99.90
24412;DHT22;12544;46.760;15.942;2023-11-18T00:44:11;3.60;99.90
24412;DHT22;12544;46.760;15.942;2023-11-18T00:46:38;3.80;99.90
24412;DHT22;12544;46.760;15.942;2023-11-18T00:49:04;4.00;99.90
24412;DHT22;12544;46.760;15.942;2023-11-18T00:51:30;4.10;99.90
24412;DHT22;12544;46.760;15.942;2023-11-18T00:53:56;3.90;99.90
24412;DHT22;12544;46.760;15.942;2023-11-18T00:56:22;3.70;99.90
24412;DHT22;12544;46.760;15.942;2023-11-18T00:58:48;3.60;99.90
24412;DHT22;12544;46.760;15.942;2023-11-18T01:01:14;3.70;99.90
24412;DHT22;12544;46.760;15.942;2023-11-18T01:03:46;3.90;99.90
24412;DHT22;12544;46.760;15.942;2023-11-18T01:06:12;3.90;99.90
24412;DHT22;12544;46.760;15.942;2023-11-18T01:08:38;3.80;99.90
24412;DHT22;12544;46.760;15.942;2023-11-18T01:11:04;3.80;99.90
24412;DHT22;12544;46.760;15.942;2023-11-18T01:13:31;3.80;99.90
24412;DHT22;12544;46.760;15.942;2023-11-18T01:15:57;3.90;99.90
24412;DHT22;12544;46.760;15.942;2023-11-18T01:18:23;4.00;99.90
24412;DHT22;12544;46.760;15.942;2023-11-18T01:20:49;4.10;99.90
24412;DHT22;12544;46.760;15.942;2023-11-18T01:23:14;4.20;99.90
24412;DHT22;12544;46.760;15.942;2023-11-18T01:25:40;4.20;99.90
24412;DHT22;12544;46.760;15.942;2023-11-18T01:28:07;4.20;99.90
24412;DHT22;12544;46.760;15.942;2023-11-18T01:30:32;4.10;99.90
24412;DHT22;12544;46.760;15.942;2023-11-18T01:32:58;4.00;99.90
24412;DHT22;12544;46.760;15.942;2023-11-18T01:35:27;3.70;99.90
24412;DHT22;12544;46.760;15.942;2023-11-18T01:37:54;3.40;99.90
24412;DHT22;12544;46.760;15.942;2023-11-18T01:40:23;3.10;99.90
24412;DHT22;12544;46.760;15.942;2023-11-18T01:42:49;2.80;99.90
24412;DHT22;12544;46.760;15.942;2023-11-18T01:45:15;2.70;99.90
24412;DHT22;12544;46.760;15.942;2023-11-18T01:47:45;2.80;99.90
24412;DHT22;12544;46.760;15.942;2023-11-18T01:50:14;3.00;99.90
24412;DHT22;12544;46.760;15.942;2023-11-18T01:52:40;3.20;99.90
24412;DHT22;12544;46.760;15.942;2023-11-18T01:55:06;3.50;99.90
24412;DHT22;12544;46.760;15.942;2023-11-18T01:57:36;3.70;99.90
24412;DHT22;12544;46.760;15.942;2023-11-18T02:00:03;3.90;99.90
24412;DHT22;12544;46.760;15.942;2023-11-18T02:02:32;4.10;99.90
24412;DHT22;12544;46.760;15.942;2023-11-18T02:04:59;4.30;99.90
24412;DHT22;12544;46.760;15.942;2023-11-18T02:07:29;4.40;99.90
24412;DHT22;12544;46.760;15.942;2023-11-18T02:09:55;4.40;99.90
24412;DHT22;12544;46.760;15.942;2023-11-18T02:12:31;4.30;99.90
24412;DHT22;12544;46.760;15.942;2023-11-18T02:15:00;4.50;99.80
24412;DHT22;12544;46.760;15.942;2023-11-18T02:17:27;4.40;99.90
24412;DHT22;12544;46.760;15.942;2023-11-18T02:19:56;4.40;99.90
24412;DHT22;12544;46.760;15.942;2023-11-18T02:22:23;4.60;99.80
24412;DHT22;12544;46.760;15.942;2023-11-18T02:24:49;4.60;99.60
24412;DHT22;12544;46.760;15.942;2023-11-18T02:27:15;4.60;99.80
24412;DHT22;12544;46.760;15.942;2023-11-18T02:29:45;4.50;99.90
24412;DHT22;12544;46.760;15.942;2023-11-18T02:35:05;3.80;99.90
24412;DHT22;12544;46.760;15.942;2023-11-18T02:37:39;3.70;99.90
24412;DHT22;12544;46.760;15.942;2023-11-18T02:40:07;3.30;99.90
24412;DHT22;12544;46.760;15.942;2023-11-18T02:42:37;3.00;99.90
24412;DHT22;12544;46.760;15.942;2023-11-18T02:45:06;2.50;99.90
24412;DHT22;12544;46.760;15.942;2023-11-18T02:47:33;2.10;99.90
24412;DHT22;12544;46.760;15.942;2023-11-18T02:49:58;1.80;99.90
24412;DHT22;12544;46.760;15.942;2023-11-18T02:52:31;1.60;99.90
24412;DHT22;12544;46.760;15.942;2023-11-18T02:54:58;1.40;99.90
24412;DHT22;12544;46.760;15.942;2023-11-18T02:57:24;1.20;99.90
24412;DHT22;12544;46.760;15.942;2023-11-18T02:59:50;1.10;99.90
24412;DHT22;12544;46.760;15.942;2023-11-18T03:02:15;1.10;99.90
24412;DHT22;12544;46.760;15.942;2023-11-18T03:04:41;0.90;99.90
24412;DHT22;12544;46.760;15.942;2023-11-18T03:07:10;0.90;99.90
24412;DHT22;12544;46.760;15.942;2023-11-18T03:09:35;0.80;99.90
24412;DHT22;12544;46.760;15.942;2023-11-18T03:12:03;0.80;99.90
24412;DHT22;12544;46.760;15.942;2023-11-18T03:14:29;0.80;99.90
24412;DHT22;12544;46.760;15.942;2023-11-18T03:16:55;0.90;99.90
24412;DHT22;12544;46.760;15.942;2023-11-18T03:19:21;1.10;99.90
24412;DHT22;12544;46.760;15.942;2023-11-18T03:21:52;1.20;99.90
24412;DHT22;12544;46.760;15.942;2023-11-18T03:24:18;1.30;99.90
24412;DHT22;12544;46.760;15.942;2023-11-18T03:26:44;1.30;99.90
24412;DHT22;12544;46.760;15.942;2023-11-18T03:29:10;1.50;99.90
24412;DHT22;12544;46.760;15.942;2023-11-18T03:31:36;1.60;99.90
24412;DHT22;12544;46.760;15.942;2023-11-18T03:34:02;1.80;99.90
24412;DHT22;12544;46.760;15.942;2023-11-18T03:36:28;1.80;99.90
24412;DHT22;12544;46.760;15.942;2023-11-18T03:38:53;1.70;99.90
24412;DHT22;12544;46.760;15.942;2023-11-18T03:41:19;1.60;99.90
24412;DHT22;12544;46.760;15.942;2023-11-18T03:43:45;1.50;99.90
24412;DHT22;12544;46.760;15.942;2023-11-18T03:46:13;1.30;99.90
24412;DHT22;12544;46.760;15.942;2023-11-18T03:48:41;1.30;99.90
24412;DHT22;12544;46.760;15.942;2023-11-18T03:54:28;1.40;99.90
24412;DHT22;12544;46.760;15.942;2023-11-18T03:56:54;1.40;99.90
24412;DHT22;12544;46.760;15.942;2023-11-18T03:59:20;1.50;99.90
24412;DHT22;12544;46.760;15.942;2023-11-18T04:01:45;1.60;99.90
24412;DHT22;12544;46.760;15.942;2023-11-18T04:04:11;1.60;99.90
24412;DHT22;12544;46.760;15.942;2023-11-18T04:06:36;1.70;99.90
24412;DHT22;12544;46.760;15.942;2023-11-18T04:09:02;1.80;99.90
24412;DHT22;12544;46.760;15.942;2023-11-18T04:11:28;1.80;99.90
24412;DHT22;12544;46.760;15.942;2023-11-18T04:17:15;1.60;99.90
24412;DHT22;12544;46.760;15.942;2023-11-18T04:19:41;1.50;99.90
24412;DHT22;12544;46.760;15.942;2023-11-18T04:22:06;1.50;99.90
24412;DHT22;12544;46.760;15.942;2023-11-18T04:24:32;1.30;99.90
24412;DHT22;12544;46.760;15.942;2023-11-18T04:26:58;1.30;99.90
24412;DHT22;12544;46.760;15.942;2023-11-18T04:29:23;1.40;99.90
24412;DHT22;12544;46.760;15.942;2023-11-18T04:31:49;1.50;99.90
24412;DHT22;12544;46.760;15.942;2023-11-18T04:34:14;1.60;99.90
24412;DHT22;12544;46.760;15.942;2023-11-18T04:36:42;1.60;99.90
24412;DHT22;12544;46.760;15.942;2023-11-18T04:39:07;1.70;99.90
24412;DHT22;12544;46.760;15.942;2023-11-18T04:41:33;1.70;99.90
24412;DHT22;12544;46.760;15.942;2023-11-18T04:43:59;1.70;99.90
24412;DHT22;12544;46.760;15.942;2023-11-18T04:46:24;1.70;99.90
24412;DHT22;12544;46.760;15.942;2023-11-18T04:48:50;1.70;99.90
24412;DHT22;12544;46.760;15.942;2023-11-18T04:51:15;1.70;99.90
24412;DHT22;12544;46.760;15.942;2023-11-18T04:53:42;1.80;99.90
24412;DHT22;12544;46.760;15.942;2023-11-18T04:56:09;1.90;99.90
24412;DHT22;12544;46.760;15.942;2023-11-18T04:58:38;2.00;99.90
24412;DHT22;12544;46.760;15.942;2023-11-18T05:01:04;2.00;99.90
24412;DHT22;12544;46.760;15.942;2023-11-18T05:03:30;1.90;99.90
24412;DHT22;12544;46.760;15.942;2023-11-18T05:05:56;1.90;99.90
24412;DHT22;12544;46.760;15.942;2023-11-18T05:08:22;1.70;99.90
24412;DHT22;12544;46.760;15.942;2023-11-18T05:10:48;1.60;99.90
24412;DHT22;12544;46.760;15.942;2023-11-18T05:13:15;1.50;99.90
24412;DHT22;12544;46.760;15.942;2023-11-18T05:15:43;1.40;99.90
24412;DHT22;12544;46.760;15.942;2023-11-18T05:18:11;1.40;99.90
24412;DHT22;12544;46.760;15.942;2023-11-18T05:20:39;1.50;99.90
24412;DHT22;12544;46.760;15.942;2023-11-18T05:23:05;1.60;99.90
24412;DHT22;12544;46.760;15.942;2023-11-18T05:25:31;1.60;99.90
24412;DHT22;12544;46.760;15.942;2023-11-18T05:27:59;1.70;99.90
24412;DHT22;12544;46.760;15.942;2023-11-18T05:30:24;1.70;99.90
24412;DHT22;12544;46.760;15.942;2023-11-18T05:32:51;1.70;99.90
24412;DHT22;12544;46.760;15.942;2023-11-18T05:35:17;1.70;99.90
24412;DHT22;12544;46.760;15.942;2023-11-18T05:37:42;1.70;99.90
24412;DHT22;12544;46.760;15.942;2023-11-18T05:40:09;1.70;99.90
24412;DHT22;12544;46.760;15.942;2023-11-18T05:42:37;1.60;99.90
24412;DHT22;12544;46.760;15.942;2023-11-18T05:45:04;1.60;99.90
24412;DHT22;12544;46.760;15.942;2023-11-18T05:47:30;1.40;99.90
24412;DHT22;12544;46.760;15.942;2023-11-18T05:49:56;1.30;99.90
24412;DHT22;12544;46.760;15.942;2023-11-18T05:52:22;1.30;99.90
24412;DHT22;12544;46.760;15.942;2023-11-18T05:54:48;1.30;99.90
24412;DHT22;12544;46.760;15.942;2023-11-18T05:57:18;1.30;99.90
24412;DHT22;12544;46.760;15.942;2023-11-18T05:59:44;1.20;99.90
24412;DHT22;12544;46.760;15.942;2023-11-18T06:02:10;1.20;99.90
24412;DHT22;12544;46.760;15.942;2023-11-18T06:04:43;1.10;99.90
24412;DHT22;12544;46.760;15.942;2023-11-18T06:07:08;1.10;99.90
24412;DHT22;12544;46.760;15.942;2023-11-18T06:09:34;1.10;99.90
24412;DHT22;12544;46.760;15.942;2023-11-18T06:12:00;1.20;99.90
24412;DHT22;12544;46.760;15.942;2023-11-18T06:14:27;1.30;99.90
24412;DHT22;12544;46.760;15.942;2023-11-18T06:16:52;1.40;99.90
24412;DHT22;12544;46.760;15.942;2023-11-18T06:19:18;1.50;99.90
24412;DHT22;12544;46.760;15.942;2023-11-18T06:21:44;1.60;99.90
24412;DHT22;12544;46.760;15.942;2023-11-18T06:24:10;1.70;99.90
24412;DHT22;12544;46.760;15.942;2023-11-18T06:26:36;1.70;99.90
24412;DHT22;12544;46.760;15.942;2023-11-18T06:29:03;1.80;99.90
24412;DHT22;12544;46.760;15.942;2023-11-18T06:34:51;1.80;99.90
24412;DHT22;12544;46.760;15.942;2023-11-18T06:37:17;1.90;99.90
24412;DHT22;12544;46.760;15.942;2023-11-18T06:39:43;1.90;99.90
24412;DHT22;12544;46.760;15.942;2023-11-18T06:42:11;2.10;99.90
24412;DHT22;12544;46.760;15.942;2023-11-18T06:44:37;2.10;99.90
24412;DHT22;12544;46.760;15.942;2023-11-18T06:47:03;2.20;99.90
24412;DHT22;12544;46.760;15.942;2023-11-18T06:49:30;2.20;99.90
24412;DHT22;12544;46.760;15.942;2023-11-18T06:55:21;2.10;99.90
24412;DHT22;12544;46.760;15.942;2023-11-18T06:57:47;2.20;99.90
24412;DHT22;12544;46.760;15.942;2023-11-18T07:00:13;2.30;99.90
24412;DHT22;12544;46.760;15.942;2023-11-18T07:02:40;2.40;99.90
24412;DHT22;12544;46.760;15.942;2023-11-18T07:05:06;2.60;99.90
24412;DHT22;12544;46.760;15.942;2023-11-18T07:07:32;2.70;99.90
24412;DHT22;12544;46.760;15.942;2023-11-18T07:09:58;2.80;99.90
24412;DHT22;12544;46.760;15.942;2023-11-18T07:12:24;3.00;99.90
24412;DHT22;12544;46.760;15.942;2023-11-18T07:14:49;3.00;99.90
24412;DHT22;12544;46.760;15.942;2023-11-18T07:17:15;3.00;99.90
24412;DHT22;12544;46.760;15.942;2023-11-18T07:19:41;3.00;99.90
24412;DHT22;12544;46.760;15.942;2023-11-18T07:22:10;2.90;99.90
24412;DHT22;12544;46.760;15.942;2023-11-18T07:24:36;2.80;99.90
24412;DHT22;12544;46.760;15.942;2023-11-18T07:27:01;2.70;99.90
24412;DHT22;12544;46.760;15.942;2023-11-18T07:29:28;2.70;99.90
24412;DHT22;12544;46.760;15.942;2023-11-18T07:31:54;2.80;99.90
24412;DHT22;12544;46.760;15.942;2023-11-18T07:34:22;2.90;99.90
24412;DHT22;12544;46.760;15.942;2023-11-18T07:36:49;2.90;99.90
24412;DHT22;12544;46.760;15.942;2023-11-18T07:39:15;3.10;99.90
24412;DHT22;12544;46.760;15.942;2023-11-18T07:41:41;3.30;99.90
24412;DHT22;12544;46.760;15.942;2023-11-18T07:44:07;3.50;99.90
24412;DHT22;12544;46.760;15.942;2023-11-18T07:46:36;3.60;99.90
24412;DHT22;12544;46.760;15.942;2023-11-18T07:52:28;3.90;99.90
24412;DHT22;12544;46.760;15.942;2023-11-18T07:54:54;3.90;99.90
24412;DHT22;12544;46.760;15.942;2023-11-18T07:57:20;3.90;99.90
24412;DHT22;12544;46.760;15.942;2023-11-18T07:59:45;3.90;99.90
24412;DHT22;12544;46.760;15.942;2023-11-18T08:02:11;3.90;99.90
24412;DHT22;12544;46.760;15.942;2023-11-18T08:04:39;4.00;99.90
24412;DHT22;12544;46.760;15.942;2023-11-18T08:07:07;4.20;99.90
24412;DHT22;12544;46.760;15.942;2023-11-18T08:09:36;4.30;99.90
24412;DHT22;12544;46.760;15.942;2023-11-18T08:12:05;4.60;99.90
24412;DHT22;12544;46.760;15.942;2023-11-18T08:14:32;4.80;99.90
24412;DHT22;12544;46.760;15.942;2023-11-18T08:16:57;5.10;99.90
24412;DHT22;12544;46.760;15.942;2023-11-18T08:19:25;5.30;99.90
24412;DHT22;12544;46.760;15.942;2023-11-18T08:21:51;5.40;99.90
24412;DHT22;12544;46.760;15.942;2023-11-18T08:24:17;5.50;99.90
24412;DHT22;12544;46.760;15.942;2023-11-18T08:26:43;5.30;99.90
24412;DHT22;12544;46.760;15.942;2023-11-18T08:29:08;5.10;99.90
24412;DHT22;12544;46.760;15.942;2023-11-18T08:31:34;5.00;99.90
24412;DHT22;12544;46.760;15.942;2023-11-18T08:34:00;5.00;99.90
24412;DHT22;12544;46.760;15.942;2023-11-18T08:36:26;5.10;99.90
24412;DHT22;12544;46.760;15.942;2023-11-18T08:42:14;5.30;99.90
24412;DHT22;12544;46.760;15.942;2023-11-18T08:44:40;5.60;99.90
24412;DHT22;12544;46.760;15.942;2023-11-18T08:47:05;5.80;99.90
24412;DHT22;12544;46.760;15.942;2023-11-18T08:49:34;6.00;99.90
24412;DHT22;12544;46.760;15.942;2023-11-18T08:51:59;6.40;99.90
24412;DHT22;12544;46.760;15.942;2023-11-18T08:54:25;6.70;99.90
24412;DHT22;12544;46.760;15.942;2023-11-18T08:57:03;6.90;99.90
24412;DHT22;12544;46.760;15.942;2023-11-18T08:59:28;7.20;99.90
24412;DHT22;12544;46.760;15.942;2023-11-18T09:01:55;7.20;99.90
24412;DHT22;12544;46.760;15.942;2023-11-18T09:04:27;7.40;99.90
24412;DHT22;12544;46.760;15.942;2023-11-18T09:06:53;7.50;99.90
24412;DHT22;12544;46.760;15.942;2023-11-18T09:09:25;7.60;99.90
24412;DHT22;12544;46.760;15.942;2023-11-18T09:15:16;7.90;99.90
24412;DHT22;12544;46.760;15.942;2023-11-18T09:17:48;7.90;99.90
24412;DHT22;12544;46.760;15.942;2023-11-18T09:20:14;7.90;99.90
24412;DHT22;12544;46.760;15.942;2023-11-18T09:22:47;8.00;99.90
24412;DHT22;12544;46.760;15.942;2023-11-18T09:25:14;8.20;99.90
24412;DHT22;12544;46.760;15.942;2023-11-18T09:27:40;8.40;99.70
24412;DHT22;12544;46.760;15.942;2023-11-18T09:30:07;8.50;99.90
24412;DHT22;12544;46.760;15.942;2023-11-18T09:32:42;8.70;98.40
24412;DHT22;12544;46.760;15.942;2023-11-18T09:35:08;8.90;96.50
24412;DHT22;12544;46.760;15.942;2023-11-18T09:37:39;9.00;98.30
24412;DHT22;12544;46.760;15.942;2023-11-18T09:40:07;9.00;97.60
24412;DHT22;12544;46.760;15.942;2023-11-18T09:42:39;9.20;97.50
24412;DHT22;12544;46.760;15.942;2023-11-18T09:45:05;9.50;97.20
24412;DHT22;12544;46.760;15.942;2023-11-18T09:47:36;9.60;95.60
24412;DHT22;12544;46.760;15.942;2023-11-18T09:50:08;9.70;94.90
24412;DHT22;12544;46.760;15.942;2023-11-18T09:52:39;9.80;95.70
24412;DHT22;12544;46.760;15.942;2023-11-18T09:55:15;9.90;95.40
24412;DHT22;12544;46.760;15.942;2023-11-18T09:57:52;10.00;94.10
24412;DHT22;12544;46.760;15.942;2023-11-18T10:00:23;10.00;94.80
24412;DHT22;12544;46.760;15.942;2023-11-18T10:02:53;10.10;93.90
24412;DHT22;12544;46.760;15.942;2023-11-18T10:05:21;10.20;93.80
24412;DHT22;12544;46.760;15.942;2023-11-18T10:07:48;10.30;94.10
24412;DHT22;12544;46.760;15.942;2023-11-18T10:10:15;10.40;94.20
24412;DHT22;12544;46.760;15.942;2023-11-18T10:12:45;10.40;93.30
24412;DHT22;12544;46.760;15.942;2023-11-18T10:15:13;10.20;93.70
24412;DHT22;12544;46.760;15.942;2023-11-18T10:17:43;10.30;95.50
24412;DHT22;12544;46.760;15.942;2023-11-18T10:23:10;11.00;92.90
24412;DHT22;12544;46.760;15.942;2023-11-18T10:25:52;11.20;93.10
24412;DHT22;12544;46.760;15.942;2023-11-18T10:30:59;10.80;92.90
24412;DHT22;12544;46.760;15.942;2023-11-18T10:33:34;10.90;93.70
24412;DHT22;12544;46.760;15.942;2023-11-18T10:36:01;10.90;94.70
24412;DHT22;12544;46.760;15.942;2023-11-18T10:38:38;10.90;93.20
24412;DHT22;12544;46.760;15.942;2023-11-18T10:41:09;10.80;92.50
24412;DHT22;12544;46.760;15.942;2023-11-18T10:43:35;10.80;92.70
24412;DHT22;12544;46.760;15.942;2023-11-18T10:48:30;11.00;93.20
24412;DHT22;12544;46.760;15.942;2023-11-18T10:50:56;11.20;91.80
24412;DHT22;12544;46.760;15.942;2023-11-18T10:53:24;11.30;93.10
24412;DHT22;12544;46.760;15.942;2023-11-18T10:55:52;11.70;91.70
24412;DHT22;12544;46.760;15.942;2023-11-18T10:58:18;11.90;91.10
24412;DHT22;12544;46.760;15.942;2023-11-18T11:00:51;12.00;90.40
24412;DHT22;12544;46.760;15.942;2023-11-18T11:03:21;11.80;91.40
24412;DHT22;12544;46.760;15.942;2023-11-18T11:05:51;11.90;91.50
24412;DHT22;12544;46.760;15.942;2023-11-18T11:08:19;12.10;90.60
24412;DHT22;12544;46.760;15.942;2023-11-18T11:10:46;12.20;90.40
24412;DHT22;12544;46.760;15.942;2023-11-18T11:13:14;12.30;90.10
24412;DHT22;12544;46.760;15.942;2023-11-18T11:15:43;12.30;88.10
24412;DHT22;12544;46.760;15.942;2023-11-18T11:18:12;12.10;90.50
24412;DHT22;12544;46.760;15.942;2023-11-18T11:21:10;12.20;89.60
24412;DHT22;12544;46.760;15.942;2023-11-18T11:23:53;12.30;90.60
24412;DHT22;12544;46.760;15.942;2023-11-18T11:29:27;12.50;90.60
24412;DHT22;12544;46.760;15.942;2023-11-18T11:34:50;12.90;87.50
24412;DHT22;12544;46.760;15.942;2023-11-18T11:37:20;13.20;87.20
24412;DHT22;12544;46.760;15.942;2023-11-18T11:39:50;13.40;87.40
24412;DHT22;12544;46.760;15.942;2023-11-18T11:42:20;13.60;86.00
24412;DHT22;12544;46.760;15.942;2023-11-18T11:44:48;13.80;86.50
24412;DHT22;12544;46.760;15.942;2023-11-18T11:47:15;13.90;84.40
24412;DHT22;12544;46.760;15.942;2023-11-18T11:49:58;14.00;82.30
24412;DHT22;12544;46.760;15.942;2023-11-18T11:52:28;14.30;83.00
24412;DHT22;12544;46.760;15.942;2023-11-18T11:57:29;14.80;80.00
24412;DHT22;12544;46.760;15.942;2023-11-18T12:00:03;14.90;78.00
24412;DHT22;12544;46.760;15.942;2023-11-18T12:02:47;14.90;79.80
24412;DHT22;12544;46.760;15.942;2023-11-18T12:05:16;15.00;78.80
24412;DHT22;12544;46.760;15.942;2023-11-18T12:07:45;15.10;79.00
24412;DHT22;12544;46.760;15.942;2023-11-18T12:10:12;15.20;77.00
24412;DHT22;12544;46.760;15.942;2023-11-18T12:12:46;15.40;77.10
24412;DHT22;12544;46.760;15.942;2023-11-18T12:15:12;15.60;76.80
24412;DHT22;12544;46.760;15.942;2023-11-18T12:20:43;15.60;74.60
24412;DHT22;12544;46.760;15.942;2023-11-18T12:23:23;15.60;75.60
24412;DHT22;12544;46.760;15.942;2023-11-18T12:25:50;15.60;75.20
24412;DHT22;12544;46.760;15.942;2023-11-18T12:28:33;15.60;73.60
24412;DHT22;12544;46.760;15.942;2023-11-18T12:31:03;15.30;73.00
24412;DHT22;12544;46.760;15.942;2023-11-18T12:42:03;14.30;78.10
24412;DHT22;12544;46.760;15.942;2023-11-18T12:44:36;14.50;79.70
24412;DHT22;12544;46.760;15.942;2023-11-18T12:47:05;14.40;78.80
24412;DHT22;12544;46.760;15.942;2023-11-18T12:49:44;14.30;78.10
24412;DHT22;12544;46.760;15.942;2023-11-18T12:52:16;14.00;79.80
24412;DHT22;12544;46.760;15.942;2023-11-18T12:54:44;14.10;81.40
24412;DHT22;12544;46.760;15.942;2023-11-18T12:57:16;14.40;79.70
24412;DHT22;12544;46.760;15.942;2023-11-18T12:59:43;14.60;77.20
24412;DHT22;12544;46.760;15.942;2023-11-18T13:02:10;14.90;78.10
24412;DHT22;12544;46.760;15.942;2023-11-18T13:04:43;15.20;78.30
24412;DHT22;12544;46.760;15.942;2023-11-18T13:07:16;15.50;78.80
24412;DHT22;12544;46.760;15.942;2023-11-18T13:09:45;15.40;74.40
24412;DHT22;12544;46.760;15.942;2023-11-18T13:12:13;14.60;78.10
24412;DHT22;12544;46.760;15.942;2023-11-18T13:14:43;14.20;79.20
24412;DHT22;12544;46.760;15.942;2023-11-18T13:17:10;14.00;78.30
24412;DHT22;12544;46.760;15.942;2023-11-18T13:19:39;14.10;80.30
24412;DHT22;12544;46.760;15.942;2023-11-18T13:22:07;14.30;82.70
24412;DHT22;12544;46.760;15.942;2023-11-18T13:24:37;14.40;79.00
24412;DHT22;12544;46.760;15.942;2023-11-18T13:30:28;14.70;79.20
24412;DHT22;12544;46.760;15.942;2023-11-18T13:32:55;15.10;80.00
24412;DHT22;12544;46.760;15.942;2023-11-18T13:35:21;15.30;77.00
24412;DHT22;12544;46.760;15.942;2023-11-18T13:37:49;15.10;76.00
24412;DHT22;12544;46.760;15.942;2023-11-18T13:40:15;14.70;77.60
24412;DHT22;12544;46.760;15.942;2023-11-18T13:42:44;14.60;76.20
24412;DHT22;12544;46.760;15.942;2023-11-18T13:45:12;14.50;76.20
24412;DHT22;12544;46.760;15.942;2023-11-18T13:47:51;14.50;78.50
24412;DHT22;12544;46.760;15.942;2023-11-18T13:50:20;14.80;77.40
24412;DHT22;12544;46.760;15.942;2023-11-18T13:52:46;15.20;79.40
24412;DHT22;12544;46.760;15.942;2023-11-18T13:55:15;15.50;76.60
24412;DHT22;12544;46.760;15.942;2023-11-18T13:57:57;15.80;76.10
24412;DHT22;12544;46.760;15.942;2023-11-18T14:00:27;16.00;75.10
24412;DHT22;12544;46.760;15.942;2023-11-18T14:02:56;15.90;75.40
24412;DHT22;12544;46.760;15.942;2023-11-18T14:05:23;15.70;76.10
24412;DHT22;12544;46.760;15.942;2023-11-18T14:07:51;15.40;72.60
24412;DHT22;12544;46.760;15.942;2023-11-18T14:10:18;15.10;76.10
24412;DHT22;12544;46.760;15.942;2023-11-18T14:13:04;14.80;76.30
24412;DHT22;12544;46.760;15.942;2023-11-18T14:15:38;14.70;78.50
24412;DHT22;12544;46.760;15.942;2023-11-18T14:21:25;14.70;76.80
24412;DHT22;12544;46.760;15.942;2023-11-18T14:23:51;14.80;81.00
24412;DHT22;12544;46.760;15.942;2023-11-18T14:26:16;14.90;80.40
24412;DHT22;12544;46.760;15.942;2023-11-18T14:28:42;15.00;77.10
24412;DHT22;12544;46.760;15.942;2023-11-18T14:31:09;15.00;75.10
24412;DHT22;12544;46.760;15.942;2023-11-18T14:33:35;15.00;76.10
24412;DHT22;12544;46.760;15.942;2023-11-18T14:36:00;14.80;74.50
24412;DHT22;12544;46.760;15.942;2023-11-18T14:38:26;14.50;76.20
24412;DHT22;12544;46.760;15.942;2023-11-18T14:40:52;14.10;76.80
24412;DHT22;12544;46.760;15.942;2023-11-18T14:43:19;13.60;77.00
24412;DHT22;12544;46.760;15.942;2023-11-18T14:45:45;13.00;81.90
24412;DHT22;12544;46.760;15.942;2023-11-18T14:48:11;12.50;82.20
24412;DHT22;12544;46.760;15.942;2023-11-18T14:50:38;12.10;87.60
24412;DHT22;12544;46.760;15.942;2023-11-18T14:53:04;12.00;84.50
24412;DHT22;12544;46.760;15.942;2023-11-18T14:55:31;11.80;86.50
24412;DHT22;12544;46.760;15.942;2023-11-18T14:57:58;11.50;84.30
24412;DHT22;12544;46.760;15.942;2023-11-18T15:00:24;11.30;83.30
24412;DHT22;12544;46.760;15.942;2023-11-18T15:02:53;11.00;86.50
24412;DHT22;12544;46.760;15.942;2023-11-18T15:05:19;10.80;87.40
24412;DHT22;12544;46.760;15.942;2023-11-18T15:07:55;10.60;90.30
24412;DHT22;12544;46.760;15.942;2023-11-18T15:13:43;10.20;90.80
24412;DHT22;12544;46.760;15.942;2023-11-18T15:16:09;10.00;90.50
24412;DHT22;12544;46.760;15.942;2023-11-18T15:18:34;9.90;90.90
24412;DHT22;12544;46.760;15.942;2023-11-18T15:21:00;9.60;91.40
24412;DHT22;12544;46.760;15.942;2023-11-18T15:23:26;9.40;90.90
24412;DHT22;12544;46.760;15.942;2023-11-18T15:28:58;8.80;93.50
24412;DHT22;12544;46.760;15.942;2023-11-18T15:31:24;8.60;92.10
24412;DHT22;12544;46.760;15.942;2023-11-18T15:33:50;8.50;92.80
24412;DHT22;12544;46.760;15.942;2023-11-18T15:36:16;8.40;93.70
24412;DHT22;12544;46.760;15.942;2023-11-18T15:38:41;8.20;93.90
24412;DHT22;12544;46.760;15.942;2023-11-18T15:41:08;8.20;93.40
24412;DHT22;12544;46.760;15.942;2023-11-18T15:43:36;8.20;93.50
24412;DHT22;12544;46.760;15.942;2023-11-18T15:46:02;8.00;94.20
24412;DHT22;12544;46.760;15.942;2023-11-18T15:48:32;7.90;93.90
24412;DHT22;12544;46.760;15.942;2023-11-18T15:54:19;7.70;94.40
24412;DHT22;12544;46.760;15.942;2023-11-18T15:56:45;7.60;94.10
24412;DHT22;12544;46.760;15.942;2023-11-18T15:59:11;7.50;94.20
24412;DHT22;12544;46.760;15.942;2023-11-18T16:01:37;7.40;94.10
24412;DHT22;12544;46.760;15.942;2023-11-18T16:04:03;7.40;94.20
24412;DHT22;12544;46.760;15.942;2023-11-18T16:06:29;7.30;94.00
24412;DHT22;12544;46.760;15.942;2023-11-18T16:08:55;7.30;94.40
24412;DHT22;12544;46.760;15.942;2023-11-18T16:11:21;7.40;93.60
24412;DHT22;12544;46.760;15.942;2023-11-18T16:13:46;7.30;94.30
24412;DHT22;12544;46.760;15.942;2023-11-18T16:16:12;7.20;94.80
24412;DHT22;12544;46.760;15.942;2023-11-18T16:18:38;7.20;94.50
24412;DHT22;12544;46.760;15.942;2023-11-18T16:21:04;7.10;94.20
24412;DHT22;12544;46.760;15.942;2023-11-18T16:23:30;7.10;94.40
24412;DHT22;12544;46.760;15.942;2023-11-18T16:26:01;7.10;94.30
24412;DHT22;12544;46.760;15.942;2023-11-18T16:28:26;7.00;94.50
24412;DHT22;12544;46.760;15.942;2023-11-18T16:30:57;7.00;94.80
24412;DHT22;12544;46.760;15.942;2023-11-18T16:33:23;6.90;94.90
24412;DHT22;12544;46.760;15.942;2023-11-18T16:35:50;6.80;96.00
24412;DHT22;12544;46.760;15.942;2023-11-18T16:38:18;6.80;96.00
24412;DHT22;12544;46.760;15.942;2023-11-18T16:40:44;6.70;96.70
24412;DHT22;12544;46.760;15.942;2023-11-18T16:43:10;6.50;97.10
24412;DHT22;12544;46.760;15.942;2023-11-18T16:45:35;6.40;97.60